LRIA - IASI

Compiled: 21:29:33 on 19/01/2018

Latest METAR/SPECI Reports

METAR LRIA 192100Z 09006KT 9999 FEW048 00/M03 Q1010 R14/19//95=

Previous reports

METAR LRIA 192030Z 10007KT 9999 FEW048 00/M03 Q1010 R14/19//95=
METAR LRIA 192000Z 09007KT CAVOK M01/M03 Q1010 R14/19//95=
METAR LRIA 191930Z 09005KT CAVOK M01/M04 Q1010 R14/19//95=
METAR LRIA 191900Z 20003KT 160V230 CAVOK 02/M03 Q1010 R14/19//95=

Latest TAF report

TAF LRIA 192000Z 1921/2006 VRB04KT 7000 BKN035 PROB30 TEMPO 1922/1924 -FZRA BECMG 2000/2002 5000 -SN BR BKN010 OVC035=

Valid WARNINGS

LRIA AD WRNG 1 VALID 191404/200700 FROST OBS AT 1400Z NC=